<?xml version="1.0" encoding="UTF-8" standalone="no" ?>
<gpx xmlns="http://www.topografix.com/GPX/1/1" xmlns:xsi="http://www.w3.org/2001/XMLSchema-instance" xsi:schemaLocation="http://www.topografix.com/GPX/1/1 http://www.topografix.com/GPX/1/1/gpx.xsd" version="1.1" creator="VisuGPX - https://www.visugpx.com">
  <metadata>
    <name>2022 10 10 randonnée autour des Salins de Frontignan</name>
    <desc><![CDATA[2022 10 10 randonnée autour des Salins de Frontignan]]></desc>
  </metadata>
  <trk>
    <name><![CDATA[Randonnée du 10/10/2022 à 15:46]]></name>
    <trkseg>
      <trkpt lat="43.44551" lon="3.75929">
        <ele>47</ele>
        <time>2022-10-10T15:46:37+02:00</time>
      </trkpt>
      <trkpt lat="43.44545" lon="3.7596">
        <ele>54</ele>
        <time>2022-10-10T15:46:56+02:00</time>
      </trkpt>
      <trkpt lat="43.44549" lon="3.75991">
        <ele>49</ele>
        <time>2022-10-10T15:47:17+02:00</time>
      </trkpt>
      <trkpt lat="43.44538" lon="3.76019">
        <ele>46</ele>
        <time>2022-10-10T15:47:39+02:00</time>
      </trkpt>
      <trkpt lat="43.44528" lon="3.76047">
        <ele>40</ele>
        <time>2022-10-10T15:48:01+02:00</time>
      </trkpt>
      <trkpt lat="43.44531" lon="3.76079">
        <ele>39</ele>
        <time>2022-10-10T15:48:23+02:00</time>
      </trkpt>
      <trkpt lat="43.44526" lon="3.76109">
        <ele>41</ele>
        <time>2022-10-10T15:48:42+02:00</time>
      </trkpt>
      <trkpt lat="43.44523" lon="3.76141">
        <ele>39</ele>
        <time>2022-10-10T15:49:02+02:00</time>
      </trkpt>
      <trkpt lat="43.4452" lon="3.76173">
        <ele>44</ele>
        <time>2022-10-10T15:49:20+02:00</time>
      </trkpt>
      <trkpt lat="43.44517" lon="3.76235">
        <ele>45</ele>
        <time>2022-10-10T15:49:57+02:00</time>
      </trkpt>
      <trkpt lat="43.44514" lon="3.76266">
        <ele>47</ele>
        <time>2022-10-10T15:50:18+02:00</time>
      </trkpt>
      <trkpt lat="43.44512" lon="3.76298">
        <ele>48</ele>
        <time>2022-10-10T15:50:37+02:00</time>
      </trkpt>
      <trkpt lat="43.44512" lon="3.7633">
        <ele>49</ele>
        <time>2022-10-10T15:50:56+02:00</time>
      </trkpt>
      <trkpt lat="43.44517" lon="3.7636">
        <ele>48</ele>
        <time>2022-10-10T15:51:16+02:00</time>
      </trkpt>
      <trkpt lat="43.4454" lon="3.76365">
        <ele>49</ele>
        <time>2022-10-10T15:51:39+02:00</time>
      </trkpt>
      <trkpt lat="43.44562" lon="3.76356">
        <ele>43</ele>
        <time>2022-10-10T15:52:01+02:00</time>
      </trkpt>
      <trkpt lat="43.44585" lon="3.76344">
        <ele>42</ele>
        <time>2022-10-10T15:52:25+02:00</time>
      </trkpt>
      <trkpt lat="43.44608" lon="3.76343">
        <ele>46</ele>
        <time>2022-10-10T15:52:46+02:00</time>
      </trkpt>
      <trkpt lat="43.44624" lon="3.76366">
        <ele>43</ele>
        <time>2022-10-10T15:53:07+02:00</time>
      </trkpt>
      <trkpt lat="43.44638" lon="3.7639">
        <ele>37</ele>
        <time>2022-10-10T15:53:25+02:00</time>
      </trkpt>
      <trkpt lat="43.44646" lon="3.76421">
        <ele>43</ele>
        <time>2022-10-10T15:53:44+02:00</time>
      </trkpt>
      <trkpt lat="43.4466" lon="3.76446">
        <ele>41</ele>
        <time>2022-10-10T15:54:08+02:00</time>
      </trkpt>
      <trkpt lat="43.44668" lon="3.76475">
        <ele>43</ele>
        <time>2022-10-10T15:54:24+02:00</time>
      </trkpt>
      <trkpt lat="43.44677" lon="3.76504">
        <ele>44</ele>
        <time>2022-10-10T15:54:42+02:00</time>
      </trkpt>
      <trkpt lat="43.44687" lon="3.76535">
        <ele>42</ele>
        <time>2022-10-10T15:55:05+02:00</time>
      </trkpt>
      <trkpt lat="43.44698" lon="3.76563">
        <ele>44</ele>
        <time>2022-10-10T15:55:22+02:00</time>
      </trkpt>
      <trkpt lat="43.44719" lon="3.76619">
        <ele>40</ele>
        <time>2022-10-10T15:56:19+02:00</time>
      </trkpt>
      <trkpt lat="43.4473" lon="3.76647">
        <ele>41</ele>
        <time>2022-10-10T15:56:36+02:00</time>
      </trkpt>
      <trkpt lat="43.4474" lon="3.76675">
        <ele>41</ele>
        <time>2022-10-10T15:56:55+02:00</time>
      </trkpt>
      <trkpt lat="43.44751" lon="3.76703">
        <ele>42</ele>
        <time>2022-10-10T15:57:14+02:00</time>
      </trkpt>
      <trkpt lat="43.44768" lon="3.76761">
        <ele>47</ele>
        <time>2022-10-10T15:57:51+02:00</time>
      </trkpt>
      <trkpt lat="43.44778" lon="3.76789">
        <ele>48</ele>
        <time>2022-10-10T15:58:10+02:00</time>
      </trkpt>
      <trkpt lat="43.44788" lon="3.76818">
        <ele>47</ele>
        <time>2022-10-10T15:58:33+02:00</time>
      </trkpt>
      <trkpt lat="43.44798" lon="3.76848">
        <ele>47</ele>
        <time>2022-10-10T15:58:54+02:00</time>
      </trkpt>
      <trkpt lat="43.44811" lon="3.76874">
        <ele>48</ele>
        <time>2022-10-10T15:59:10+02:00</time>
      </trkpt>
      <trkpt lat="43.4482" lon="3.76902">
        <ele>49</ele>
        <time>2022-10-10T15:59:32+02:00</time>
      </trkpt>
      <trkpt lat="43.44832" lon="3.76929">
        <ele>50</ele>
        <time>2022-10-10T15:59:49+02:00</time>
      </trkpt>
      <trkpt lat="43.44843" lon="3.76959">
        <ele>49</ele>
        <time>2022-10-10T16:00:08+02:00</time>
      </trkpt>
      <trkpt lat="43.44854" lon="3.76987">
        <ele>46</ele>
        <time>2022-10-10T16:00:31+02:00</time>
      </trkpt>
      <trkpt lat="43.44865" lon="3.77014">
        <ele>46</ele>
        <time>2022-10-10T16:00:48+02:00</time>
      </trkpt>
      <trkpt lat="43.44876" lon="3.77043">
        <ele>49</ele>
        <time>2022-10-10T16:01:07+02:00</time>
      </trkpt>
      <trkpt lat="43.44887" lon="3.77071">
        <ele>49</ele>
        <time>2022-10-10T16:01:21+02:00</time>
      </trkpt>
      <trkpt lat="43.44899" lon="3.77099">
        <ele>47</ele>
        <time>2022-10-10T16:01:43+02:00</time>
      </trkpt>
      <trkpt lat="43.44909" lon="3.77127">
        <ele>45</ele>
        <time>2022-10-10T16:02:04+02:00</time>
      </trkpt>
      <trkpt lat="43.4492" lon="3.77154">
        <ele>46</ele>
        <time>2022-10-10T16:02:22+02:00</time>
      </trkpt>
      <trkpt lat="43.4494" lon="3.77211">
        <ele>46</ele>
        <time>2022-10-10T16:02:58+02:00</time>
      </trkpt>
      <trkpt lat="43.44949" lon="3.77241">
        <ele>46</ele>
        <time>2022-10-10T16:03:18+02:00</time>
      </trkpt>
      <trkpt lat="43.4496" lon="3.77269">
        <ele>47</ele>
        <time>2022-10-10T16:03:35+02:00</time>
      </trkpt>
      <trkpt lat="43.44973" lon="3.77296">
        <ele>48</ele>
        <time>2022-10-10T16:03:54+02:00</time>
      </trkpt>
      <trkpt lat="43.44986" lon="3.77322">
        <ele>41</ele>
        <time>2022-10-10T16:04:18+02:00</time>
      </trkpt>
      <trkpt lat="43.44995" lon="3.77351">
        <ele>43</ele>
        <time>2022-10-10T16:04:35+02:00</time>
      </trkpt>
      <trkpt lat="43.45005" lon="3.7738">
        <ele>45</ele>
        <time>2022-10-10T16:04:53+02:00</time>
      </trkpt>
      <trkpt lat="43.45015" lon="3.7741">
        <ele>45</ele>
        <time>2022-10-10T16:05:13+02:00</time>
      </trkpt>
      <trkpt lat="43.45027" lon="3.77436">
        <ele>41</ele>
        <time>2022-10-10T16:05:32+02:00</time>
      </trkpt>
      <trkpt lat="43.45038" lon="3.77465">
        <ele>43</ele>
        <time>2022-10-10T16:05:52+02:00</time>
      </trkpt>
      <trkpt lat="43.45047" lon="3.77494">
        <ele>40</ele>
        <time>2022-10-10T16:06:14+02:00</time>
      </trkpt>
      <trkpt lat="43.45056" lon="3.77523">
        <ele>42</ele>
        <time>2022-10-10T16:06:31+02:00</time>
      </trkpt>
      <trkpt lat="43.4507" lon="3.77549">
        <ele>44</ele>
        <time>2022-10-10T16:06:52+02:00</time>
      </trkpt>
      <trkpt lat="43.4508" lon="3.77579">
        <ele>45</ele>
        <time>2022-10-10T16:07:10+02:00</time>
      </trkpt>
      <trkpt lat="43.4509" lon="3.77607">
        <ele>46</ele>
        <time>2022-10-10T16:07:28+02:00</time>
      </trkpt>
      <trkpt lat="43.45105" lon="3.77633">
        <ele>43</ele>
        <time>2022-10-10T16:07:47+02:00</time>
      </trkpt>
      <trkpt lat="43.45113" lon="3.77663">
        <ele>44</ele>
        <time>2022-10-10T16:08:08+02:00</time>
      </trkpt>
      <trkpt lat="43.45125" lon="3.77691">
        <ele>39</ele>
        <time>2022-10-10T16:08:32+02:00</time>
      </trkpt>
      <trkpt lat="43.45137" lon="3.77718">
        <ele>40</ele>
        <time>2022-10-10T16:08:50+02:00</time>
      </trkpt>
      <trkpt lat="43.4515" lon="3.77743">
        <ele>37</ele>
        <time>2022-10-10T16:09:10+02:00</time>
      </trkpt>
      <trkpt lat="43.45161" lon="3.77771">
        <ele>39</ele>
        <time>2022-10-10T16:09:28+02:00</time>
      </trkpt>
      <trkpt lat="43.4517" lon="3.77801">
        <ele>41</ele>
        <time>2022-10-10T16:09:47+02:00</time>
      </trkpt>
      <trkpt lat="43.45184" lon="3.77827">
        <ele>43</ele>
        <time>2022-10-10T16:10:06+02:00</time>
      </trkpt>
      <trkpt lat="43.452" lon="3.77848">
        <ele>42</ele>
        <time>2022-10-10T16:10:27+02:00</time>
      </trkpt>
      <trkpt lat="43.45221" lon="3.77862">
        <ele>42</ele>
        <time>2022-10-10T16:10:46+02:00</time>
      </trkpt>
      <trkpt lat="43.45244" lon="3.77864">
        <ele>43</ele>
        <time>2022-10-10T16:11:03+02:00</time>
      </trkpt>
      <trkpt lat="43.45267" lon="3.77869">
        <ele>42</ele>
        <time>2022-10-10T16:11:25+02:00</time>
      </trkpt>
      <trkpt lat="43.45291" lon="3.77871">
        <ele>43</ele>
        <time>2022-10-10T16:11:46+02:00</time>
      </trkpt>
      <trkpt lat="43.45314" lon="3.77874">
        <ele>44</ele>
        <time>2022-10-10T16:12:09+02:00</time>
      </trkpt>
      <trkpt lat="43.45333" lon="3.77856">
        <ele>45</ele>
        <time>2022-10-10T16:12:30+02:00</time>
      </trkpt>
      <trkpt lat="43.45354" lon="3.77842">
        <ele>45</ele>
        <time>2022-10-10T16:12:48+02:00</time>
      </trkpt>
      <trkpt lat="43.45372" lon="3.77822">
        <ele>44</ele>
        <time>2022-10-10T16:13:06+02:00</time>
      </trkpt>
      <trkpt lat="43.45387" lon="3.77798">
        <ele>43</ele>
        <time>2022-10-10T16:13:28+02:00</time>
      </trkpt>
      <trkpt lat="43.45402" lon="3.77774">
        <ele>44</ele>
        <time>2022-10-10T16:13:48+02:00</time>
      </trkpt>
      <trkpt lat="43.4542" lon="3.77754">
        <ele>42</ele>
        <time>2022-10-10T16:14:07+02:00</time>
      </trkpt>
      <trkpt lat="43.45438" lon="3.77736">
        <ele>40</ele>
        <time>2022-10-10T16:14:26+02:00</time>
      </trkpt>
      <trkpt lat="43.45459" lon="3.77722">
        <ele>35</ele>
        <time>2022-10-10T16:14:51+02:00</time>
      </trkpt>
      <trkpt lat="43.45481" lon="3.77713">
        <ele>38</ele>
        <time>2022-10-10T16:15:11+02:00</time>
      </trkpt>
      <trkpt lat="43.45503" lon="3.77708">
        <ele>38</ele>
        <time>2022-10-10T16:15:30+02:00</time>
      </trkpt>
      <trkpt lat="43.45523" lon="3.77725">
        <ele>37</ele>
        <time>2022-10-10T16:15:48+02:00</time>
      </trkpt>
      <trkpt lat="43.45539" lon="3.77746">
        <ele>37</ele>
        <time>2022-10-10T16:16:07+02:00</time>
      </trkpt>
      <trkpt lat="43.45556" lon="3.7777">
        <ele>32</ele>
        <time>2022-10-10T16:16:31+02:00</time>
      </trkpt>
      <trkpt lat="43.45571" lon="3.77795">
        <ele>32</ele>
        <time>2022-10-10T16:16:48+02:00</time>
      </trkpt>
      <trkpt lat="43.45586" lon="3.77817">
        <ele>33</ele>
        <time>2022-10-10T16:17:08+02:00</time>
      </trkpt>
      <trkpt lat="43.45604" lon="3.77838">
        <ele>33</ele>
        <time>2022-10-10T16:17:27+02:00</time>
      </trkpt>
      <trkpt lat="43.45621" lon="3.77859">
        <ele>37</ele>
        <time>2022-10-10T16:17:56+02:00</time>
      </trkpt>
      <trkpt lat="43.45633" lon="3.77831">
        <ele>36</ele>
        <time>2022-10-10T16:18:19+02:00</time>
      </trkpt>
      <trkpt lat="43.45646" lon="3.77803">
        <ele>40</ele>
        <time>2022-10-10T16:18:39+02:00</time>
      </trkpt>
      <trkpt lat="43.45661" lon="3.77778">
        <ele>41</ele>
        <time>2022-10-10T16:19:03+02:00</time>
      </trkpt>
      <trkpt lat="43.45672" lon="3.7775">
        <ele>40</ele>
        <time>2022-10-10T16:19:23+02:00</time>
      </trkpt>
      <trkpt lat="43.45682" lon="3.7769">
        <ele>39</ele>
        <time>2022-10-10T16:20:03+02:00</time>
      </trkpt>
      <trkpt lat="43.45694" lon="3.77631">
        <ele>36</ele>
        <time>2022-10-10T16:20:44+02:00</time>
      </trkpt>
      <trkpt lat="43.45697" lon="3.776">
        <ele>38</ele>
        <time>2022-10-10T16:21:01+02:00</time>
      </trkpt>
      <trkpt lat="43.457" lon="3.77568">
        <ele>40</ele>
        <time>2022-10-10T16:21:16+02:00</time>
      </trkpt>
      <trkpt lat="43.45715" lon="3.77544">
        <ele>39</ele>
        <time>2022-10-10T16:21:40+02:00</time>
      </trkpt>
      <trkpt lat="43.45734" lon="3.77526">
        <ele>39</ele>
        <time>2022-10-10T16:21:59+02:00</time>
      </trkpt>
      <trkpt lat="43.45741" lon="3.77497">
        <ele>42</ele>
        <time>2022-10-10T16:22:25+02:00</time>
      </trkpt>
      <trkpt lat="43.45735" lon="3.77466">
        <ele>40</ele>
        <time>2022-10-10T16:22:48+02:00</time>
      </trkpt>
      <trkpt lat="43.45723" lon="3.77439">
        <ele>39</ele>
        <time>2022-10-10T16:23:06+02:00</time>
      </trkpt>
      <trkpt lat="43.45713" lon="3.7741">
        <ele>37</ele>
        <time>2022-10-10T16:23:26+02:00</time>
      </trkpt>
      <trkpt lat="43.45706" lon="3.7738">
        <ele>38</ele>
        <time>2022-10-10T16:23:45+02:00</time>
      </trkpt>
      <trkpt lat="43.45698" lon="3.7735">
        <ele>38</ele>
        <time>2022-10-10T16:24:07+02:00</time>
      </trkpt>
      <trkpt lat="43.45689" lon="3.77321">
        <ele>38</ele>
        <time>2022-10-10T16:24:27+02:00</time>
      </trkpt>
      <trkpt lat="43.45677" lon="3.77293">
        <ele>38</ele>
        <time>2022-10-10T16:24:48+02:00</time>
      </trkpt>
      <trkpt lat="43.45688" lon="3.77266">
        <ele>40</ele>
        <time>2022-10-10T16:25:09+02:00</time>
      </trkpt>
      <trkpt lat="43.45699" lon="3.77237">
        <ele>39</ele>
        <time>2022-10-10T16:25:34+02:00</time>
      </trkpt>
      <trkpt lat="43.45715" lon="3.77215">
        <ele>38</ele>
        <time>2022-10-10T16:25:51+02:00</time>
      </trkpt>
      <trkpt lat="43.45731" lon="3.77192">
        <ele>39</ele>
        <time>2022-10-10T16:26:10+02:00</time>
      </trkpt>
      <trkpt lat="43.45748" lon="3.7717">
        <ele>39</ele>
        <time>2022-10-10T16:26:29+02:00</time>
      </trkpt>
      <trkpt lat="43.45765" lon="3.77148">
        <ele>39</ele>
        <time>2022-10-10T16:26:48+02:00</time>
      </trkpt>
      <trkpt lat="43.45781" lon="3.77124">
        <ele>39</ele>
        <time>2022-10-10T16:27:08+02:00</time>
      </trkpt>
      <trkpt lat="43.45797" lon="3.771">
        <ele>37</ele>
        <time>2022-10-10T16:27:29+02:00</time>
      </trkpt>
      <trkpt lat="43.45813" lon="3.77077">
        <ele>34</ele>
        <time>2022-10-10T16:27:48+02:00</time>
      </trkpt>
      <trkpt lat="43.45829" lon="3.77054">
        <ele>34</ele>
        <time>2022-10-10T16:28:08+02:00</time>
      </trkpt>
      <trkpt lat="43.45847" lon="3.77033">
        <ele>36</ele>
        <time>2022-10-10T16:28:26+02:00</time>
      </trkpt>
      <trkpt lat="43.4586" lon="3.77006">
        <ele>40</ele>
        <time>2022-10-10T16:28:45+02:00</time>
      </trkpt>
      <trkpt lat="43.45877" lon="3.76985">
        <ele>41</ele>
        <time>2022-10-10T16:29:04+02:00</time>
      </trkpt>
      <trkpt lat="43.45891" lon="3.76961">
        <ele>40</ele>
        <time>2022-10-10T16:29:28+02:00</time>
      </trkpt>
      <trkpt lat="43.45909" lon="3.7694">
        <ele>41</ele>
        <time>2022-10-10T16:29:46+02:00</time>
      </trkpt>
      <trkpt lat="43.45925" lon="3.76918">
        <ele>40</ele>
        <time>2022-10-10T16:30:02+02:00</time>
      </trkpt>
      <trkpt lat="43.45946" lon="3.76905">
        <ele>42</ele>
        <time>2022-10-10T16:30:21+02:00</time>
      </trkpt>
      <trkpt lat="43.45969" lon="3.76905">
        <ele>42</ele>
        <time>2022-10-10T16:30:41+02:00</time>
      </trkpt>
      <trkpt lat="43.45991" lon="3.76897">
        <ele>40</ele>
        <time>2022-10-10T16:31:02+02:00</time>
      </trkpt>
      <trkpt lat="43.46013" lon="3.76898">
        <ele>39</ele>
        <time>2022-10-10T16:31:22+02:00</time>
      </trkpt>
      <trkpt lat="43.46036" lon="3.76894">
        <ele>39</ele>
        <time>2022-10-10T16:31:43+02:00</time>
      </trkpt>
      <trkpt lat="43.46059" lon="3.76894">
        <ele>36</ele>
        <time>2022-10-10T16:31:58+02:00</time>
      </trkpt>
      <trkpt lat="43.46082" lon="3.76892">
        <ele>36</ele>
        <time>2022-10-10T16:32:16+02:00</time>
      </trkpt>
      <trkpt lat="43.46102" lon="3.76878">
        <ele>40</ele>
        <time>2022-10-10T16:32:39+02:00</time>
      </trkpt>
      <trkpt lat="43.46126" lon="3.76872">
        <ele>41</ele>
        <time>2022-10-10T16:32:59+02:00</time>
      </trkpt>
      <trkpt lat="43.46149" lon="3.76868">
        <ele>40</ele>
        <time>2022-10-10T16:33:21+02:00</time>
      </trkpt>
      <trkpt lat="43.4617" lon="3.76853">
        <ele>36</ele>
        <time>2022-10-10T16:33:36+02:00</time>
      </trkpt>
      <trkpt lat="43.46156" lon="3.76828">
        <ele>38</ele>
        <time>2022-10-10T16:34:08+02:00</time>
      </trkpt>
      <trkpt lat="43.46134" lon="3.7682">
        <ele>41</ele>
        <time>2022-10-10T16:34:29+02:00</time>
      </trkpt>
      <trkpt lat="43.46112" lon="3.76812">
        <ele>41</ele>
        <time>2022-10-10T16:34:49+02:00</time>
      </trkpt>
      <trkpt lat="43.46092" lon="3.76798">
        <ele>36</ele>
        <time>2022-10-10T16:35:13+02:00</time>
      </trkpt>
      <trkpt lat="43.4607" lon="3.76785">
        <ele>37</ele>
        <time>2022-10-10T16:35:31+02:00</time>
      </trkpt>
      <trkpt lat="43.4605" lon="3.7677">
        <ele>39</ele>
        <time>2022-10-10T16:35:50+02:00</time>
      </trkpt>
      <trkpt lat="43.46029" lon="3.76754">
        <ele>33</ele>
        <time>2022-10-10T16:36:14+02:00</time>
      </trkpt>
      <trkpt lat="43.46009" lon="3.76739">
        <ele>34</ele>
        <time>2022-10-10T16:36:31+02:00</time>
      </trkpt>
      <trkpt lat="43.45988" lon="3.76727">
        <ele>37</ele>
        <time>2022-10-10T16:36:50+02:00</time>
      </trkpt>
      <trkpt lat="43.45967" lon="3.76712">
        <ele>38</ele>
        <time>2022-10-10T16:37:09+02:00</time>
      </trkpt>
      <trkpt lat="43.45947" lon="3.76697">
        <ele>38</ele>
        <time>2022-10-10T16:37:31+02:00</time>
      </trkpt>
      <trkpt lat="43.45929" lon="3.76677">
        <ele>39</ele>
        <time>2022-10-10T16:37:48+02:00</time>
      </trkpt>
      <trkpt lat="43.45909" lon="3.76663">
        <ele>37</ele>
        <time>2022-10-10T16:38:04+02:00</time>
      </trkpt>
      <trkpt lat="43.45889" lon="3.76648">
        <ele>38</ele>
        <time>2022-10-10T16:38:25+02:00</time>
      </trkpt>
      <trkpt lat="43.45868" lon="3.76636">
        <ele>36</ele>
        <time>2022-10-10T16:38:46+02:00</time>
      </trkpt>
      <trkpt lat="43.45847" lon="3.76622">
        <ele>36</ele>
        <time>2022-10-10T16:39:02+02:00</time>
      </trkpt>
      <trkpt lat="43.45826" lon="3.76605">
        <ele>38</ele>
        <time>2022-10-10T16:39:22+02:00</time>
      </trkpt>
      <trkpt lat="43.45805" lon="3.76591">
        <ele>38</ele>
        <time>2022-10-10T16:39:43+02:00</time>
      </trkpt>
      <trkpt lat="43.45785" lon="3.76575">
        <ele>39</ele>
        <time>2022-10-10T16:40:04+02:00</time>
      </trkpt>
      <trkpt lat="43.45765" lon="3.76559">
        <ele>38</ele>
        <time>2022-10-10T16:40:22+02:00</time>
      </trkpt>
      <trkpt lat="43.45744" lon="3.76545">
        <ele>36</ele>
        <time>2022-10-10T16:40:41+02:00</time>
      </trkpt>
      <trkpt lat="43.45723" lon="3.76532">
        <ele>38</ele>
        <time>2022-10-10T16:41:00+02:00</time>
      </trkpt>
      <trkpt lat="43.457" lon="3.76532">
        <ele>41</ele>
        <time>2022-10-10T16:41:18+02:00</time>
      </trkpt>
      <trkpt lat="43.45677" lon="3.76536">
        <ele>45</ele>
        <time>2022-10-10T16:41:41+02:00</time>
      </trkpt>
      <trkpt lat="43.45654" lon="3.76542">
        <ele>46</ele>
        <time>2022-10-10T16:42:03+02:00</time>
      </trkpt>
      <trkpt lat="43.45632" lon="3.76537">
        <ele>45</ele>
        <time>2022-10-10T16:42:17+02:00</time>
      </trkpt>
      <trkpt lat="43.4561" lon="3.7653">
        <ele>45</ele>
        <time>2022-10-10T16:42:34+02:00</time>
      </trkpt>
      <trkpt lat="43.45589" lon="3.7652">
        <ele>45</ele>
        <time>2022-10-10T16:42:53+02:00</time>
      </trkpt>
      <trkpt lat="43.45566" lon="3.7651">
        <ele>42</ele>
        <time>2022-10-10T16:43:13+02:00</time>
      </trkpt>
      <trkpt lat="43.45542" lon="3.76512">
        <ele>41</ele>
        <time>2022-10-10T16:43:33+02:00</time>
      </trkpt>
      <trkpt lat="43.4552" lon="3.76501">
        <ele>38</ele>
        <time>2022-10-10T16:43:51+02:00</time>
      </trkpt>
      <trkpt lat="43.45498" lon="3.76493">
        <ele>36</ele>
        <time>2022-10-10T16:44:15+02:00</time>
      </trkpt>
      <trkpt lat="43.45474" lon="3.76495">
        <ele>37</ele>
        <time>2022-10-10T16:44:34+02:00</time>
      </trkpt>
      <trkpt lat="43.45451" lon="3.76495">
        <ele>40</ele>
        <time>2022-10-10T16:44:51+02:00</time>
      </trkpt>
      <trkpt lat="43.45428" lon="3.76495">
        <ele>39</ele>
        <time>2022-10-10T16:45:07+02:00</time>
      </trkpt>
      <trkpt lat="43.45405" lon="3.76492">
        <ele>40</ele>
        <time>2022-10-10T16:45:31+02:00</time>
      </trkpt>
      <trkpt lat="43.45382" lon="3.76487">
        <ele>38</ele>
        <time>2022-10-10T16:45:51+02:00</time>
      </trkpt>
      <trkpt lat="43.45359" lon="3.76479">
        <ele>38</ele>
        <time>2022-10-10T16:46:10+02:00</time>
      </trkpt>
      <trkpt lat="43.45336" lon="3.76475">
        <ele>38</ele>
        <time>2022-10-10T16:46:29+02:00</time>
      </trkpt>
      <trkpt lat="43.45315" lon="3.76463">
        <ele>38</ele>
        <time>2022-10-10T16:46:47+02:00</time>
      </trkpt>
      <trkpt lat="43.45294" lon="3.76451">
        <ele>39</ele>
        <time>2022-10-10T16:47:04+02:00</time>
      </trkpt>
      <trkpt lat="43.45273" lon="3.76441">
        <ele>38</ele>
        <time>2022-10-10T16:47:30+02:00</time>
      </trkpt>
      <trkpt lat="43.45255" lon="3.76421">
        <ele>39</ele>
        <time>2022-10-10T16:47:47+02:00</time>
      </trkpt>
      <trkpt lat="43.45235" lon="3.76405">
        <ele>40</ele>
        <time>2022-10-10T16:48:05+02:00</time>
      </trkpt>
      <trkpt lat="43.45217" lon="3.76385">
        <ele>38</ele>
        <time>2022-10-10T16:48:22+02:00</time>
      </trkpt>
      <trkpt lat="43.45195" lon="3.76376">
        <ele>37</ele>
        <time>2022-10-10T16:48:40+02:00</time>
      </trkpt>
      <trkpt lat="43.45183" lon="3.7635">
        <ele>35</ele>
        <time>2022-10-10T16:49:01+02:00</time>
      </trkpt>
      <trkpt lat="43.45166" lon="3.76326">
        <ele>34</ele>
        <time>2022-10-10T16:49:24+02:00</time>
      </trkpt>
      <trkpt lat="43.45148" lon="3.76306">
        <ele>35</ele>
        <time>2022-10-10T16:49:44+02:00</time>
      </trkpt>
      <trkpt lat="43.45131" lon="3.76284">
        <ele>37</ele>
        <time>2022-10-10T16:50:03+02:00</time>
      </trkpt>
      <trkpt lat="43.45115" lon="3.76262">
        <ele>36</ele>
        <time>2022-10-10T16:50:23+02:00</time>
      </trkpt>
      <trkpt lat="43.45096" lon="3.76243">
        <ele>38</ele>
        <time>2022-10-10T16:50:43+02:00</time>
      </trkpt>
      <trkpt lat="43.45078" lon="3.76226">
        <ele>36</ele>
        <time>2022-10-10T16:51:07+02:00</time>
      </trkpt>
      <trkpt lat="43.45057" lon="3.76208">
        <ele>33</ele>
        <time>2022-10-10T16:51:22+02:00</time>
      </trkpt>
      <trkpt lat="43.45041" lon="3.76185">
        <ele>36</ele>
        <time>2022-10-10T16:51:41+02:00</time>
      </trkpt>
      <trkpt lat="43.45025" lon="3.76164">
        <ele>34</ele>
        <time>2022-10-10T16:52:01+02:00</time>
      </trkpt>
      <trkpt lat="43.45008" lon="3.76142">
        <ele>33</ele>
        <time>2022-10-10T16:52:22+02:00</time>
      </trkpt>
      <trkpt lat="43.45014" lon="3.76112">
        <ele>36</ele>
        <time>2022-10-10T16:52:45+02:00</time>
      </trkpt>
      <trkpt lat="43.4502" lon="3.76082">
        <ele>35</ele>
        <time>2022-10-10T16:53:03+02:00</time>
      </trkpt>
      <trkpt lat="43.45002" lon="3.76063">
        <ele>34</ele>
        <time>2022-10-10T16:53:27+02:00</time>
      </trkpt>
      <trkpt lat="43.4498" lon="3.76053">
        <ele>37</ele>
        <time>2022-10-10T16:53:44+02:00</time>
      </trkpt>
      <trkpt lat="43.44957" lon="3.76042">
        <ele>36</ele>
        <time>2022-10-10T16:54:06+02:00</time>
      </trkpt>
      <trkpt lat="43.44935" lon="3.76043">
        <ele>34</ele>
        <time>2022-10-10T16:54:28+02:00</time>
      </trkpt>
      <trkpt lat="43.44911" lon="3.76035">
        <ele>24</ele>
        <time>2022-10-10T16:54:50+02:00</time>
      </trkpt>
      <trkpt lat="43.44889" lon="3.76028">
        <ele>27</ele>
        <time>2022-10-10T16:55:07+02:00</time>
      </trkpt>
      <trkpt lat="43.44867" lon="3.76016">
        <ele>31</ele>
        <time>2022-10-10T16:55:26+02:00</time>
      </trkpt>
      <trkpt lat="43.44845" lon="3.7601">
        <ele>34</ele>
        <time>2022-10-10T16:55:46+02:00</time>
      </trkpt>
      <trkpt lat="43.44823" lon="3.75998">
        <ele>40</ele>
        <time>2022-10-10T16:56:07+02:00</time>
      </trkpt>
      <trkpt lat="43.44803" lon="3.75984">
        <ele>38</ele>
        <time>2022-10-10T16:56:28+02:00</time>
      </trkpt>
      <trkpt lat="43.44781" lon="3.75974">
        <ele>24</ele>
        <time>2022-10-10T16:56:47+02:00</time>
      </trkpt>
      <trkpt lat="43.44759" lon="3.75964">
        <ele>24</ele>
        <time>2022-10-10T16:57:10+02:00</time>
      </trkpt>
      <trkpt lat="43.44737" lon="3.75962">
        <ele>28</ele>
        <time>2022-10-10T16:57:27+02:00</time>
      </trkpt>
      <trkpt lat="43.44714" lon="3.75954">
        <ele>28</ele>
        <time>2022-10-10T16:57:45+02:00</time>
      </trkpt>
      <trkpt lat="43.44692" lon="3.7595">
        <ele>29</ele>
        <time>2022-10-10T16:58:03+02:00</time>
      </trkpt>
      <trkpt lat="43.44668" lon="3.75949">
        <ele>28</ele>
        <time>2022-10-10T16:58:26+02:00</time>
      </trkpt>
      <trkpt lat="43.44645" lon="3.75946">
        <ele>24</ele>
        <time>2022-10-10T16:58:51+02:00</time>
      </trkpt>
      <trkpt lat="43.44623" lon="3.75944">
        <ele>25</ele>
        <time>2022-10-10T16:59:10+02:00</time>
      </trkpt>
      <trkpt lat="43.446" lon="3.75937">
        <ele>27</ele>
        <time>2022-10-10T16:59:26+02:00</time>
      </trkpt>
      <trkpt lat="43.44577" lon="3.75936">
        <ele>28</ele>
        <time>2022-10-10T16:59:46+02:00</time>
      </trkpt>
      <trkpt lat="43.44554" lon="3.75931">
        <ele>35</ele>
        <time>2022-10-10T16:59:58+02:00</time>
      </trkpt>
    </trkseg>
  </trk>
</gpx>